Time;durP1;ratioP1;P1;durP2;ratioP2;P2;SDS_P1;SDS_P2;PMS_P1;PMS_P2;Temp;Humidity;BMP_temperature;BMP_pressure;BME280_temperature;BME280_humidity;BME280_pressure;Samples;Min_cycle;Max_cycle;Signal;HPM_P1;HPM_P2
2023/05/29 00:00:20;;;;;;;13.43;2.60;;;9.50;99.90;;;;;;5029202;28;20044;-62
2023/05/29 00:02:47;;;;;;;19.75;3.20;;;9.40;99.90;;;;;;5031440;28;20536;-63
2023/05/29 00:05:13;;;;;;;15.10;3.13;;;9.40;99.90;;;;;;5022933;28;20040;-61
2023/05/29 00:07:40;;;;;;;13.05;3.15;;;9.40;99.90;;;;;;5032099;28;20053;-62
2023/05/29 00:10:07;;;;;;;19.58;3.10;;;9.30;99.90;;;;;;5040152;28;20425;-62
2023/05/29 00:12:33;;;;;;;17.98;3.40;;;9.30;99.90;;;;;;5024244;28;20048;-62
2023/05/29 00:15:00;;;;;;;18.17;2.75;;;9.30;99.90;;;;;;5038787;28;20469;-64
2023/05/29 00:17:26;;;;;;;17.15;3.60;;;9.30;99.90;;;;;;5021385;28;20405;-63
2023/05/29 00:19:51;;;;;;;17.88;3.58;;;9.30;99.90;;;;;;5018779;28;20041;-62
2023/05/29 00:22:17;;;;;;;19.15;3.90;;;9.30;99.90;;;;;;5040440;28;20037;-62
2023/05/29 00:24:43;;;;;;;21.63;3.40;;;9.20;99.90;;;;;;5016945;28;20056;-62
2023/05/29 00:27:09;;;;;;;18.90;3.90;;;9.30;99.90;;;;;;5038690;28;20037;-62
2023/05/29 00:29:37;;;;;;;21.10;3.80;;;9.20;99.90;;;;;;5032998;28;20041;-62
2023/05/29 00:32:07;;;;;;;20.10;3.58;;;9.20;99.90;;;;;;5036907;28;20045;-63
2023/05/29 00:34:32;;;;;;;17.02;3.22;;;9.10;99.90;;;;;;5026909;28;20075;-62
2023/05/29 00:36:59;;;;;;;19.10;3.42;;;9.10;99.90;;;;;;5024806;28;20045;-63
2023/05/29 00:39:25;;;;;;;21.63;3.72;;;9.10;99.90;;;;;;5043420;28;20088;-62
2023/05/29 00:41:51;;;;;;;15.40;3.25;;;9.10;99.90;;;;;;5028533;28;20056;-63
2023/05/29 00:44:20;;;;;;;19.23;3.75;;;9.10;99.90;;;;;;5023890;28;20052;-62
2023/05/29 00:46:52;;;;;;;21.15;3.78;;;9.00;99.90;;;;;;5034899;28;20531;-62
2023/05/29 00:49:21;;;;;;;19.17;3.50;;;9.00;99.90;;;;;;5034949;28;20568;-62
2023/05/29 00:51:47;;;;;;;22.40;3.50;;;9.00;99.90;;;;;;5036890;28;20061;-64
2023/05/29 00:54:17;;;;;;;21.77;4.07;;;9.00;99.90;;;;;;5031454;28;20076;-63
2023/05/29 00:56:43;;;;;;;24.45;4.13;;;9.00;99.90;;;;;;5021764;28;20037;-63
2023/05/29 00:59:10;;;;;;;18.58;3.90;;;9.00;99.90;;;;;;5033652;28;20504;-63
2023/05/29 01:01:37;;;;;;;17.70;3.25;;;9.00;99.90;;;;;;5020875;28;20136;-62
2023/05/29 01:04:06;;;;;;;16.40;3.20;;;9.00;99.90;;;;;;5025417;28;20044;-63
2023/05/29 01:06:32;;;;;;;13.73;3.58;;;9.00;99.90;;;;;;5030162;28;20526;-63
2023/05/29 01:08:58;;;;;;;18.45;3.78;;;8.90;99.90;;;;;;5031019;28;20040;-62
2023/05/29 01:11:41;;;;;;;18.15;3.28;;;8.90;99.90;;;;;;5021068;28;20094;-62
2023/05/29 01:14:17;;;;;;;12.95;2.95;;;9.00;99.90;;;;;;5025936;28;20105;-61
2023/05/29 01:16:50;;;;;;;19.30;4.50;;;8.90;99.90;;;;;;5028794;28;20155;-62
2023/05/29 01:19:43;;;;;;;14.60;3.60;;;8.90;99.90;;;;;;5038074;28;20045;-62
2023/05/29 01:22:36;;;;;;;15.40;3.60;;;8.90;99.90;;;;;;5045415;28;20470;-63
2023/05/29 01:25:17;;;;;;;14.23;3.38;;;8.90;99.90;;;;;;5044069;28;20049;-64
2023/05/29 01:27:47;;;;;;;16.42;3.00;;;8.90;99.90;;;;;;5021714;28;20493;-63
2023/05/29 01:30:14;;;;;;;17.88;3.10;;;9.00;99.90;;;;;;5030227;28;20076;-64
2023/05/29 01:32:42;;;;;;;20.90;4.25;;;9.00;99.90;;;;;;5016425;28;20029;-63
2023/05/29 01:35:08;;;;;;;17.73;3.92;;;9.00;99.90;;;;;;5042308;28;20044;-62
2023/05/29 01:37:34;;;;;;;22.60;3.72;;;9.10;99.90;;;;;;5037751;28;20052;-63
2023/05/29 01:40:01;;;;;;;14.98;3.85;;;9.10;99.90;;;;;;5048916;28;20037;-62
2023/05/29 01:42:28;;;;;;;19.40;4.07;;;9.10;99.90;;;;;;5031471;28;20153;-62
2023/05/29 01:44:56;;;;;;;27.17;4.40;;;9.10;99.90;;;;;;5030147;28;20037;-62
2023/05/29 01:47:23;;;;;;;24.00;3.85;;;9.10;99.90;;;;;;5031632;28;20034;-62
2023/05/29 01:49:51;;;;;;;25.20;4.60;;;9.10;99.90;;;;;;5032860;28;21072;-63
2023/05/29 01:52:17;;;;;;;18.95;3.92;;;9.10;99.90;;;;;;5043959;28;20044;-63
2023/05/29 01:54:43;;;;;;;21.13;4.10;;;9.10;99.90;;;;;;5035517;28;20057;-62
2023/05/29 01:57:10;;;;;;;18.02;3.97;;;9.10;99.90;;;;;;5022999;28;20398;-62
2023/05/29 01:59:37;;;;;;;22.30;4.30;;;9.10;99.90;;;;;;5038232;28;20295;-63
2023/05/29 02:02:10;;;;;;;25.20;4.20;;;9.10;99.90;;;;;;5036855;28;20045;-62
2023/05/29 02:04:35;;;;;;;;;;;9.20;99.90;;;;;;5032558;28;20510;-64
2023/05/29 02:07:01;;;;;;;20.63;4.38;;;9.20;99.90;;;;;;5021230;28;19958;-62
2023/05/29 02:09:27;;;;;;;31.25;5.38;;;9.20;99.90;;;;;;5035875;28;20116;-62
2023/05/29 02:11:53;;;;;;;21.52;4.05;;;9.20;99.90;;;;;;5034352;28;20042;-62
2023/05/29 02:14:18;;;;;;;12.63;3.05;;;9.20;99.90;;;;;;5020830;28;20038;-62
2023/05/29 02:16:44;;;;;;;19.63;3.58;;;9.30;99.90;;;;;;5039875;28;20029;-64
2023/05/29 02:19:10;;;;;;;20.23;4.35;;;9.30;99.90;;;;;;5039984;28;20086;-63
2023/05/29 02:21:42;;;;;;;21.67;3.83;;;9.30;99.90;;;;;;5034593;28;20124;-62
2023/05/29 02:24:08;;;;;;;18.10;3.38;;;9.30;99.90;;;;;;5034094;28;20033;-62
2023/05/29 02:26:36;;;;;;;12.07;3.45;;;9.30;99.90;;;;;;5037639;28;20179;-63
2023/05/29 02:29:02;;;;;;;14.35;3.03;;;9.30;99.90;;;;;;5037978;28;20127;-62
2023/05/29 02:31:28;;;;;;;20.52;3.53;;;9.20;99.90;;;;;;5026938;28;20028;-62
2023/05/29 02:33:54;;;;;;;16.65;3.25;;;9.20;99.90;;;;;;5021719;28;20673;-62
2023/05/29 02:36:20;;;;;;;15.48;3.10;;;9.20;99.90;;;;;;5020824;28;20040;-62
2023/05/29 02:38:45;;;;;;;19.92;3.60;;;9.20;99.90;;;;;;5042159;28;20045;-62
2023/05/29 02:41:11;;;;;;;23.15;3.80;;;9.20;99.90;;;;;;5036005;28;20146;-64
2023/05/29 02:43:37;;;;;;;18.52;3.58;;;9.10;99.90;;;;;;5038610;28;20542;-62
2023/05/29 02:46:03;;;;;;;14.23;3.10;;;9.10;99.90;;;;;;5029163;28;20041;-62
2023/05/29 02:48:29;;;;;;;14.02;3.67;;;9.10;99.90;;;;;;5037877;28;20527;-64
2023/05/29 02:50:54;;;;;;;15.85;3.25;;;9.10;99.90;;;;;;5036475;28;20048;-62
2023/05/29 02:53:20;;;;;;;14.57;3.20;;;9.10;99.90;;;;;;5024912;28;20374;-64
2023/05/29 02:55:46;;;;;;;15.95;2.95;;;9.10;99.90;;;;;;5013962;28;20067;-63
2023/05/29 02:58:12;;;;;;;15.48;3.40;;;9.20;99.90;;;;;;5024961;28;20033;-62
2023/05/29 03:00:38;;;;;;;18.98;3.28;;;9.20;99.90;;;;;;5038773;28;20053;-64
2023/05/29 03:03:04;;;;;;;22.05;3.45;;;9.20;99.90;;;;;;5037534;28;20049;-63
2023/05/29 03:05:30;;;;;;;13.52;2.75;;;9.30;99.90;;;;;;5037865;28;20056;-62
2023/05/29 03:07:56;;;;;;;21.38;3.33;;;9.30;99.90;;;;;;5037251;28;20057;-63
2023/05/29 03:10:22;;;;;;;11.65;2.80;;;9.20;99.90;;;;;;5033952;28;20041;-62
2023/05/29 03:12:47;;;;;;;11.57;2.75;;;9.30;99.90;;;;;;5042093;28;20496;-63
2023/05/29 03:15:14;;;;;;;17.67;3.42;;;9.40;99.90;;;;;;5031490;28;20119;-62
2023/05/29 03:17:39;;;;;;;18.35;3.55;;;9.40;99.90;;;;;;5042724;28;20044;-62
2023/05/29 03:20:07;;;;;;;17.23;3.15;;;9.50;99.90;;;;;;5014484;28;20046;-62
2023/05/29 03:22:36;;;;;;;14.85;3.35;;;9.50;99.90;;;;;;5043761;28;20044;-62
2023/05/29 03:25:03;;;;;;;14.40;2.90;;;9.50;99.90;;;;;;5023213;28;20052;-63
2023/05/29 03:27:30;;;;;;;32.63;4.22;;;9.50;99.90;;;;;;5049223;28;20133;-63
2023/05/29 03:29:57;;;;;;;18.00;3.90;;;9.50;99.90;;;;;;5026365;28;20422;-62
2023/05/29 03:32:23;;;;;;;21.73;3.67;;;9.50;99.90;;;;;;5041380;28;20049;-62
2023/05/29 03:34:49;;;;;;;23.58;3.58;;;9.50;99.90;;;;;;5022944;28;20037;-63
2023/05/29 03:37:15;;;;;;;14.45;3.28;;;9.50;99.90;;;;;;5024582;28;20033;-63
2023/05/29 03:39:41;;;;;;;14.38;3.55;;;9.50;99.90;;;;;;5026153;28;20056;-62
2023/05/29 03:42:07;;;;;;;18.38;3.30;;;9.50;99.90;;;;;;5026724;28;20041;-63
2023/05/29 03:44:32;;;;;;;16.73;3.42;;;9.50;99.90;;;;;;5046467;28;20045;-62
2023/05/29 03:46:58;;;;;;;13.93;3.10;;;9.50;99.90;;;;;;5044189;28;20037;-64
2023/05/29 03:49:24;;;;;;;18.77;2.85;;;9.50;99.90;;;;;;5046367;28;20045;-63
2023/05/29 03:51:50;;;;;;;17.38;2.97;;;9.50;99.90;;;;;;5038436;28;20037;-62
2023/05/29 03:54:16;;;;;;;15.35;2.83;;;9.50;99.90;;;;;;5029375;28;20543;-62
2023/05/29 03:56:42;;;;;;;15.15;2.97;;;9.50;99.90;;;;;;5018631;28;20112;-62
2023/05/29 03:59:08;;;;;;;13.65;2.95;;;9.50;99.90;;;;;;5043071;28;20049;-63
2023/05/29 04:01:34;;;;;;;15.48;2.65;;;9.50;99.90;;;;;;5030289;28;20051;-63
2023/05/29 04:04:00;;;;;;;17.27;3.33;;;9.50;99.90;;;;;;5051716;28;20090;-62
2023/05/29 04:06:26;;;;;;;15.07;3.38;;;9.70;99.90;;;;;;5028115;28;20032;-63
2023/05/29 04:08:52;;;;;;;16.45;3.47;;;9.50;99.90;;;;;;5047504;28;20502;-63
2023/05/29 04:11:20;;;;;;;19.27;3.63;;;9.50;99.90;;;;;;5051219;28;20071;-63
2023/05/29 04:13:47;;;;;;;20.65;3.45;;;9.50;99.90;;;;;;5028186;28;20063;-62
2023/05/29 04:16:14;;;;;;;17.02;3.25;;;9.50;99.90;;;;;;5038170;28;20036;-64
2023/05/29 04:18:39;;;;;;;15.05;3.28;;;9.60;99.90;;;;;;5038578;28;20052;-62
2023/05/29 04:21:05;;;;;;;14.75;3.53;;;9.60;99.90;;;;;;5041774;28;20036;-63
2023/05/29 04:23:31;;;;;;;15.38;3.17;;;9.60;99.90;;;;;;5029399;28;20037;-62
2023/05/29 04:25:57;;;;;;;18.67;3.10;;;9.60;99.90;;;;;;5045075;28;20037;-64
2023/05/29 04:28:24;;;;;;;14.43;3.10;;;9.60;99.90;;;;;;5051574;28;20060;-63
2023/05/29 04:30:50;;;;;;;19.90;3.22;;;9.60;99.90;;;;;;5041942;28;20045;-62
2023/05/29 04:33:17;;;;;;;19.25;3.50;;;9.60;99.90;;;;;;5038362;28;20033;-62
2023/05/29 04:35:43;;;;;;;14.88;3.05;;;9.60;99.90;;;;;;5044591;28;20025;-64
2023/05/29 04:38:09;;;;;;;19.55;3.20;;;9.60;99.90;;;;;;5030888;28;20067;-62
2023/05/29 04:40:36;;;;;;;21.13;3.58;;;9.70;99.90;;;;;;5026110;28;20134;-62
2023/05/29 04:43:05;;;;;;;17.17;3.20;;;9.70;99.90;;;;;;5029992;28;20041;-62
2023/05/29 04:45:30;;;;;;;15.85;3.53;;;9.70;99.90;;;;;;5039445;28;20146;-64
2023/05/29 04:47:56;;;;;;;18.33;3.42;;;9.70;99.90;;;;;;5041232;28;20128;-63
2023/05/29 04:50:27;;;;;;;19.40;3.80;;;9.70;99.90;;;;;;5037029;28;20124;-62
2023/05/29 04:52:53;;;;;;;18.70;3.60;;;9.70;99.90;;;;;;5043441;28;20041;-62
2023/05/29 04:55:18;;;;;;;22.27;3.85;;;9.80;99.90;;;;;;5022642;28;20056;-62
2023/05/29 04:57:44;;;;;;;12.23;3.00;;;9.80;99.90;;;;;;5055502;28;21020;-62
2023/05/29 05:00:13;;;;;;;14.50;3.55;;;9.90;99.90;;;;;;5042564;28;20049;-63
2023/05/29 05:02:43;;;;;;;19.70;3.72;;;9.90;99.90;;;;;;5034018;28;20068;-63
2023/05/29 05:05:09;;;;;;;14.98;3.20;;;10.00;99.90;;;;;;5038621;28;20033;-63
2023/05/29 05:07:35;;;;;;;22.33;4.20;;;10.10;99.90;;;;;;5028808;28;20048;-64
2023/05/29 05:10:01;;;;;;;19.90;3.60;;;10.20;99.90;;;;;;5033106;28;20123;-63
2023/05/29 05:12:27;;;;;;;23.35;4.18;;;10.20;99.90;;;;;;5011898;28;20073;-62
2023/05/29 05:14:52;;;;;;;26.38;3.80;;;10.30;99.90;;;;;;5029585;28;20065;-63
2023/05/29 05:17:18;;;;;;;20.52;4.07;;;10.30;99.90;;;;;;5027628;28;20047;-62
2023/05/29 05:19:44;;;;;;;14.32;3.72;;;10.40;99.90;;;;;;5048852;28;20049;-62
2023/05/29 05:22:09;;;;;;;18.55;4.07;;;10.40;99.90;;;;;;5025599;28;20055;-63
2023/05/29 05:24:35;;;;;;;24.42;5.03;;;10.50;99.90;;;;;;5024139;28;20494;-63
2023/05/29 05:27:01;;;;;;;24.33;3.58;;;10.50;99.90;;;;;;5032575;28;20067;-62
2023/05/29 05:29:27;;;;;;;17.98;3.83;;;10.50;99.90;;;;;;5042286;28;20288;-62
2023/05/29 05:31:52;;;;;;;29.08;4.22;;;10.60;99.90;;;;;;5026533;28;20040;-63
2023/05/29 05:34:18;;;;;;;24.45;4.65;;;10.60;99.90;;;;;;5039229;28;20042;-62
2023/05/29 05:36:44;;;;;;;23.20;4.13;;;10.60;99.90;;;;;;5042068;28;20120;-63
2023/05/29 05:39:10;;;;;;;19.50;4.32;;;10.60;99.90;;;;;;5044814;28;20123;-63
2023/05/29 05:41:35;;;;;;;20.15;4.35;;;10.70;99.90;;;;;;5025395;28;20056;-63
2023/05/29 05:44:01;;;;;;;23.85;4.47;;;10.80;99.90;;;;;;5025920;28;20045;-62
2023/05/29 05:46:27;;;;;;;25.63;4.70;;;10.70;99.90;;;;;;5006314;28;20539;-62
2023/05/29 05:48:56;;;;;;;20.88;3.92;;;10.70;99.90;;;;;;5042788;28;20136;-62
2023/05/29 05:51:23;;;;;;;21.92;4.57;;;10.70;99.90;;;;;;5044286;28;20045;-62
2023/05/29 05:53:49;;;;;;;28.38;4.93;;;10.80;99.90;;;;;;5032813;28;20037;-62
2023/05/29 05:56:15;;;;;;;23.42;4.18;;;10.80;99.90;;;;;;5042252;28;20063;-62
2023/05/29 05:58:41;;;;;;;21.35;4.88;;;10.80;99.90;;;;;;5023108;28;20045;-63
2023/05/29 06:01:08;;;;;;;22.25;4.38;;;10.80;99.90;;;;;;5009789;28;20044;-63
2023/05/29 06:03:34;;;;;;;24.50;4.63;;;10.90;99.90;;;;;;5034941;28;20083;-64
2023/05/29 06:06:00;;;;;;;19.40;4.05;;;11.00;99.90;;;;;;5024464;28;20492;-64
2023/05/29 06:08:26;;;;;;;20.58;4.60;;;11.00;99.90;;;;;;5005958;28;20044;-64
2023/05/29 06:10:52;;;;;;;22.30;5.22;;;11.10;99.90;;;;;;5026057;28;20041;-63
2023/05/29 06:13:18;;;;;;;22.42;4.05;;;11.10;99.90;;;;;;5043512;28;20056;-62
2023/05/29 06:15:44;;;;;;;22.77;4.15;;;11.20;99.90;;;;;;5028525;28;20067;-63
2023/05/29 06:18:10;;;;;;;21.70;4.80;;;11.20;99.90;;;;;;5039565;28;20045;-62
2023/05/29 06:20:36;;;;;;;19.80;4.13;;;11.30;99.90;;;;;;5039777;28;20053;-62
2023/05/29 06:23:02;;;;;;;21.20;4.72;;;11.40;99.90;;;;;;5034152;28;20064;-64
2023/05/29 06:25:32;;;;;;;29.80;4.78;;;11.50;99.90;;;;;;5023594;28;20129;-63
2023/05/29 06:28:02;;;;;;;21.48;4.90;;;11.60;99.90;;;;;;5030443;28;20045;-63
2023/05/29 06:30:28;;;;;;;16.85;4.55;;;11.60;99.90;;;;;;5022355;28;20051;-63
2023/05/29 06:32:54;;;;;;;22.55;4.72;;;11.60;99.90;;;;;;5042758;28;20068;-63
2023/05/29 06:35:20;;;;;;;23.23;4.43;;;11.50;99.90;;;;;;5026022;28;20433;-64
2023/05/29 06:37:46;;;;;;;23.23;4.47;;;11.60;99.90;;;;;;5023612;28;20416;-63
2023/05/29 06:40:15;;;;;;;21.63;4.28;;;11.60;99.90;;;;;;5037144;28;20071;-64
2023/05/29 06:42:44;;;;;;;21.23;4.43;;;11.60;99.90;;;;;;5034578;28;20059;-63
2023/05/29 06:45:13;;;;;;;22.67;4.85;;;11.60;99.90;;;;;;5022150;28;20045;-63
2023/05/29 06:47:40;;;;;;;20.48;4.22;;;11.70;99.90;;;;;;5036859;28;20051;-63
2023/05/29 06:50:06;;;;;;;25.27;3.97;;;11.70;99.90;;;;;;5044444;28;20049;-63
2023/05/29 06:52:32;;;;;;;26.38;4.72;;;11.80;99.90;;;;;;5023594;28;20060;-64
2023/05/29 06:54:58;;;;;;;28.42;4.78;;;11.90;99.90;;;;;;4993103;28;20122;-62
2023/05/29 06:57:24;;;;;;;26.20;5.10;;;11.90;99.90;;;;;;5025417;28;20046;-63
2023/05/29 06:59:50;;;;;;;22.70;3.72;;;12.10;99.90;;;;;;5034854;28;20045;-63
2023/05/29 07:02:15;;;;;;;22.67;5.18;;;12.20;99.90;;;;;;5041533;28;20127;-63
2023/05/29 07:04:41;;;;;;;23.58;4.68;;;12.30;99.90;;;;;;5036632;28;20110;-63
2023/05/29 07:07:07;;;;;;;23.75;4.72;;;12.40;99.90;;;;;;5036675;28;20052;-63
2023/05/29 07:09:32;;;;;;;22.48;4.00;;;12.40;99.90;;;;;;5037376;28;20079;-63
2023/05/29 07:11:58;;;;;;;14.23;3.83;;;12.40;99.90;;;;;;5010939;28;20040;-62
2023/05/29 07:14:24;;;;;;;18.42;3.60;;;12.40;99.90;;;;;;5039796;28;20116;-63
2023/05/29 07:16:50;;;;;;;22.98;4.30;;;12.50;99.90;;;;;;5025062;28;20037;-62
2023/05/29 07:19:17;;;;;;;21.50;4.28;;;12.60;99.90;;;;;;5005782;28;20047;-63
2023/05/29 07:21:42;;;;;;;21.77;4.57;;;12.70;99.90;;;;;;5033195;28;20041;-63
2023/05/29 07:24:08;;;;;;;24.98;4.45;;;12.80;99.90;;;;;;5026397;28;20389;-63
2023/05/29 07:26:34;;;;;;;23.88;3.70;;;12.80;99.90;;;;;;5040570;28;20489;-63
2023/05/29 07:29:00;;;;;;;26.05;5.05;;;12.80;99.90;;;;;;5040523;28;20119;-63
2023/05/29 07:31:25;;;;;;;21.98;4.65;;;12.80;99.90;;;;;;5035244;28;20047;-63
2023/05/29 07:33:51;;;;;;;25.98;5.05;;;12.90;99.90;;;;;;5041964;28;20041;-62
2023/05/29 07:36:18;;;;;;;22.35;4.38;;;13.00;99.90;;;;;;5039763;28;20132;-63
2023/05/29 07:38:44;;;;;;;21.33;4.68;;;13.00;99.90;;;;;;5038062;28;20075;-65
2023/05/29 07:41:10;;;;;;;16.90;4.03;;;13.00;99.90;;;;;;5017370;28;20044;-64
2023/05/29 07:43:36;;;;;;;23.48;3.75;;;13.00;99.90;;;;;;5029769;28;20052;-63
2023/05/29 07:46:01;;;;;;;18.15;4.47;;;13.10;99.90;;;;;;5016990;28;20079;-63
2023/05/29 07:48:28;;;;;;;22.70;4.13;;;13.20;99.90;;;;;;5005587;28;20519;-63
2023/05/29 07:50:53;;;;;;;24.17;4.95;;;13.30;99.90;;;;;;5012657;28;20121;-63
2023/05/29 07:53:19;;;;;;;22.65;4.10;;;13.40;99.90;;;;;;5004381;28;20404;-63
2023/05/29 07:55:45;;;;;;;19.90;4.28;;;13.50;99.90;;;;;;5034500;28;20074;-62
2023/05/29 07:58:11;;;;;;;29.85;4.57;;;13.60;99.90;;;;;;5036499;28;20037;-63
2023/05/29 08:00:38;;;;;;;20.15;4.13;;;13.70;99.90;;;;;;5039262;28;20043;-63
2023/05/29 08:03:04;;;;;;;34.35;4.97;;;13.70;99.90;;;;;;5013225;28;21120;-63
2023/05/29 08:05:31;;;;;;;21.98;4.47;;;13.70;99.90;;;;;;5017211;28;20041;-63
2023/05/29 08:07:58;;;;;;;21.23;4.13;;;13.70;99.90;;;;;;5034292;28;20100;-64
2023/05/29 08:10:25;;;;;;;22.58;4.05;;;13.70;99.90;;;;;;5017163;28;20053;-63
2023/05/29 08:12:51;;;;;;;23.52;4.40;;;13.80;99.90;;;;;;5025660;28;20067;-64
2023/05/29 08:15:18;;;;;;;21.05;4.22;;;13.80;99.90;;;;;;5000855;28;20538;-64
2023/05/29 08:17:44;;;;;;;25.67;4.22;;;13.80;99.90;;;;;;5021858;28;20420;-63
2023/05/29 08:20:10;;;;;;;19.15;3.95;;;13.90;99.90;;;;;;5027413;28;20429;-63
2023/05/29 08:22:36;;;;;;;20.67;4.00;;;13.90;99.90;;;;;;5017848;28;20065;-65
2023/05/29 08:25:02;;;;;;;28.92;4.50;;;14.00;99.90;;;;;;5003011;28;20048;-63
2023/05/29 08:27:28;;;;;;;21.50;4.10;;;14.00;99.90;;;;;;5021148;28;20762;-63
2023/05/29 08:29:54;;;;;;;20.83;4.35;;;14.10;99.90;;;;;;5014181;28;21093;-64
2023/05/29 08:32:21;;;;;;;24.65;5.10;;;14.00;99.90;;;;;;5005819;28;20045;-63
2023/05/29 08:34:46;;;;;;;22.63;5.30;;;14.10;99.90;;;;;;5010679;28;20489;-63
2023/05/29 08:37:13;;;;;;;24.23;5.13;;;14.10;99.90;;;;;;5013289;28;20044;-63
2023/05/29 08:39:39;;;;;;;24.38;4.35;;;14.10;99.90;;;;;;5024881;28;20091;-64
2023/05/29 08:42:10;;;;;;;30.42;4.82;;;14.20;99.90;;;;;;5026964;28;20563;-62
2023/05/29 08:44:38;;;;;;;23.60;4.10;;;14.20;99.80;;;;;;5002518;28;20067;-62
2023/05/29 08:47:07;;;;;;;24.70;4.55;;;14.20;99.90;;;;;;5024353;28;20126;-64
2023/05/29 08:49:43;;;;;;;21.13;4.32;;;14.20;99.90;;;;;;5024456;28;20069;-62
2023/05/29 08:52:25;;;;;;;26.55;4.47;;;14.20;99.70;;;;;;5019249;28;20068;-62
2023/05/29 08:54:52;;;;;;;22.08;4.97;;;14.20;99.80;;;;;;5039959;28;20366;-62
2023/05/29 08:57:18;;;;;;;25.38;4.90;;;14.30;99.90;;;;;;5039616;28;20048;-63
2023/05/29 08:59:45;;;;;;;20.13;4.13;;;14.30;99.70;;;;;;5030097;28;20041;-63
2023/05/29 09:02:11;;;;;;;22.58;4.70;;;14.20;99.10;;;;;;5025592;28;20049;-62
2023/05/29 09:04:39;;;;;;;19.60;4.20;;;14.10;98.90;;;;;;5035815;28;20044;-62
2023/05/29 09:07:08;;;;;;;20.80;4.20;;;14.10;99.30;;;;;;5025228;28;20111;-62
2023/05/29 09:09:34;;;;;;;18.17;4.32;;;14.10;99.40;;;;;;5038838;28;20065;-62
2023/05/29 09:12:00;;;;;;;26.70;5.07;;;14.20;99.60;;;;;;5028229;28;20222;-63
2023/05/29 09:14:52;;;;;;;24.65;5.40;;;14.20;99.70;;;;;;5046828;28;20095;-62
2023/05/29 09:17:18;;;;;;;28.58;4.60;;;14.30;99.90;;;;;;5039016;28;20094;-63
2023/05/29 09:19:45;;;;;;;26.50;5.00;;;14.40;99.60;;;;;;5033542;28;20493;-62
2023/05/29 09:22:16;;;;;;;18.58;4.28;;;14.40;99.40;;;;;;5023089;28;20049;-62
2023/05/29 09:24:47;;;;;;;19.40;4.30;;;14.40;98.90;;;;;;5040005;28;20037;-62
2023/05/29 09:27:13;;;;;;;21.48;4.35;;;14.50;99.20;;;;;;5037395;28;20691;-61
2023/05/29 09:29:44;;;;;;;19.50;4.45;;;14.60;99.10;;;;;;5040384;28;20040;-63
2023/05/29 09:32:13;;;;;;;22.27;4.78;;;14.70;99.20;;;;;;5014874;28;20052;-62
2023/05/29 09:34:39;;;;;;;26.80;4.78;;;14.80;98.90;;;;;;5034902;28;20079;-62
2023/05/29 09:37:10;;;;;;;22.13;4.82;;;14.90;99.00;;;;;;5020370;28;20175;-62
2023/05/29 09:39:43;;;;;;;20.90;4.20;;;15.10;98.50;;;;;;5016931;28;20068;-62
2023/05/29 09:42:12;;;;;;;17.67;3.72;;;15.10;98.20;;;;;;5030114;28;20049;-62
2023/05/29 09:44:41;;;;;;;22.40;4.13;;;15.10;98.10;;;;;;5036218;28;20145;-61
2023/05/29 09:47:07;;;;;;;27.40;4.75;;;15.10;97.90;;;;;;5027159;28;20052;-62
2023/05/29 09:49:33;;;;;;;27.70;5.05;;;15.20;98.20;;;;;;5037726;28;20485;-62
2023/05/29 09:52:00;;;;;;;27.23;5.32;;;15.30;98.00;;;;;;5032413;28;20052;-63
2023/05/29 09:54:30;;;;;;;25.38;4.47;;;15.40;97.80;;;;;;5014373;28;20106;-62
2023/05/29 09:56:58;;;;;;;18.25;4.43;;;15.50;97.90;;;;;;5033096;28;20091;-63
2023/05/29 09:59:25;;;;;;;17.85;4.13;;;15.60;97.60;;;;;;5041220;28;20550;-62
2023/05/29 10:02:02;;;;;;;16.98;4.47;;;15.60;97.20;;;;;;5040994;28;20480;-62
2023/05/29 10:04:29;;;;;;;19.05;4.20;;;15.70;96.60;;;;;;5034169;28;20098;-62
2023/05/29 10:06:57;;;;;;;21.15;4.32;;;15.70;96.30;;;;;;5043666;28;20033;-62
2023/05/29 10:09:25;;;;;;;20.85;3.83;;;15.80;96.30;;;;;;5043387;28;20045;-62
2023/05/29 10:11:57;;;;;;;27.55;4.57;;;15.90;96.30;;;;;;5050233;28;20105;-62
2023/05/29 10:14:25;;;;;;;19.77;4.40;;;16.00;95.90;;;;;;5029552;28;20044;-62
2023/05/29 10:16:52;;;;;;;18.77;3.72;;;16.10;96.00;;;;;;5033574;28;20037;-63
2023/05/29 10:19:26;;;;;;;20.58;4.45;;;16.10;95.60;;;;;;5025406;28;20041;-62
2023/05/29 10:21:53;;;;;;;18.77;4.28;;;16.10;96.00;;;;;;5031939;28;20033;-62
2023/05/29 10:24:20;;;;;;;21.00;3.83;;;16.20;95.80;;;;;;5030776;28;21369;-62
2023/05/29 10:26:49;;;;;;;19.67;4.03;;;16.20;95.90;;;;;;5036187;28;20203;-62
2023/05/29 10:29:43;;;;;;;20.35;3.55;;;16.30;95.50;;;;;;5040616;28;20191;-63
2023/05/29 10:32:36;;;;;;;22.92;4.25;;;16.30;95.50;;;;;;5039445;28;20109;-63
2023/05/29 10:35:11;;;;;;;;;;;16.30;94.90;;;;;;5028134;28;20041;-62
2023/05/29 10:37:40;;;;;;;20.10;3.80;;;16.30;95.10;;;;;;5045616;28;20373;-62
2023/05/29 10:40:14;;;;;;;24.00;4.18;;;16.40;95.30;;;;;;5039135;28;20092;-63
2023/05/29 10:42:54;;;;;;;23.45;4.20;;;16.50;94.50;;;;;;5043303;28;20041;-63
2023/05/29 10:45:32;;;;;;;18.23;4.13;;;16.60;94.70;;;;;;5039327;28;20561;-62
2023/05/29 10:48:28;;;;;;;19.80;4.13;;;16.70;94.20;;;;;;5049611;28;20041;-62
2023/05/29 10:50:55;;;;;;;20.10;3.97;;;16.80;94.00;;;;;;5050730;28;20520;-62
2023/05/29 10:53:28;;;;;;;19.30;3.55;;;16.80;94.10;;;;;;5040964;28;20553;-62
2023/05/29 10:55:54;;;;;;;20.08;4.32;;;16.90;93.20;;;;;;5050593;28;20036;-62
2023/05/29 10:58:24;;;;;;;24.70;4.63;;;16.90;93.20;;;;;;5036229;28;20189;-62
2023/05/29 11:00:53;;;;;;;19.63;4.38;;;16.90;92.90;;;;;;5022098;28;20136;-62
2023/05/29 11:03:36;;;;;;;20.25;3.80;;;16.90;93.30;;;;;;5032493;28;20041;-62
2023/05/29 11:06:10;;;;;;;25.63;4.22;;;16.80;91.00;;;;;;5039949;28;20413;-62
2023/05/29 11:08:46;;;;;;;21.85;3.95;;;16.80;92.30;;;;;;5035456;28;20386;-62
2023/05/29 11:11:28;;;;;;;15.88;4.25;;;17.00;92.70;;;;;;5026495;28;20397;-62
2023/05/29 11:13:59;;;;;;;17.10;4.18;;;17.20;92.60;;;;;;5045871;28;20038;-62
2023/05/29 11:16:25;;;;;;;17.75;4.10;;;17.50;92.30;;;;;;5034203;28;20037;-62
2023/05/29 11:18:52;;;;;;;15.30;3.00;;;17.50;91.10;;;;;;5028583;28;20131;-62
2023/05/29 11:21:34;;;;;;;19.63;4.00;;;17.50;90.40;;;;;;5033706;28;20037;-63
2023/05/29 11:24:07;;;;;;;17.90;3.83;;;17.40;88.90;;;;;;5041434;28;20048;-62
2023/05/29 11:26:36;;;;;;;16.63;3.45;;;17.30;89.20;;;;;;5042103;28;20045;-63
2023/05/29 11:29:06;;;;;;;20.83;4.32;;;17.40;89.80;;;;;;5042763;28;20064;-62
2023/05/29 11:31:34;;;;;;;21.23;3.95;;;17.50;90.30;;;;;;5039743;28;20041;-62
2023/05/29 11:34:04;;;;;;;22.70;4.03;;;17.60;89.90;;;;;;5022821;28;20480;-62
2023/05/29 11:36:33;;;;;;;16.35;3.55;;;17.60;89.00;;;;;;5027139;28;20183;-63
2023/05/29 11:38:59;;;;;;;17.67;3.90;;;17.60;89.30;;;;;;5022317;28;20549;-61
2023/05/29 11:41:26;;;;;;;25.83;4.32;;;17.70;89.80;;;;;;5035415;28;20050;-63
2023/05/29 11:44:02;;;;;;;20.25;3.80;;;17.80;88.50;;;;;;5022007;28;20044;-62
2023/05/29 11:46:32;;;;;;;18.80;4.45;;;17.90;87.60;;;;;;5016567;28;20117;-62
2023/05/29 11:49:01;;;;;;;16.85;3.35;;;18.00;87.90;;;;;;5040629;28;20389;-62
2023/05/29 11:51:28;;;;;;;19.25;4.05;;;18.10;87.50;;;;;;5038208;28;20107;-62
2023/05/29 11:53:58;;;;;;;13.27;3.67;;;18.10;85.60;;;;;;5045788;28;20036;-63
2023/05/29 11:56:25;;;;;;;16.02;3.40;;;18.10;83.10;;;;;;5012159;28;20040;-63
2023/05/29 11:58:55;;;;;;;20.33;3.63;;;18.10;83.10;;;;;;5043983;28;20032;-62
2023/05/29 12:01:21;;;;;;;16.08;3.25;;;18.10;83.70;;;;;;5041979;28;20128;-62
2023/05/29 12:03:47;;;;;;;15.43;3.55;;;18.20;83.20;;;;;;5039507;28;20033;-62
2023/05/29 12:06:12;;;;;;;20.45;4.03;;;18.10;82.80;;;;;;5037122;28;20047;-62
2023/05/29 12:08:39;;;;;;;19.27;3.83;;;18.10;82.50;;;;;;5040013;28;20036;-62
2023/05/29 12:11:05;;;;;;;18.73;4.22;;;18.10;83.60;;;;;;5026845;28;20127;-62
2023/05/29 12:13:31;;;;;;;22.42;3.70;;;18.20;81.90;;;;;;5042211;28;20040;-62
2023/05/29 12:16:03;;;;;;;24.92;4.40;;;18.20;81.30;;;;;;5038121;28;20322;-63
2023/05/29 12:18:29;;;;;;;15.52;3.28;;;18.20;81.10;;;;;;5041825;28;20515;-62
2023/05/29 12:21:00;;;;;;;23.90;3.58;;;18.10;82.00;;;;;;5049056;28;20049;-62
2023/05/29 12:23:27;;;;;;;18.05;3.75;;;18.10;82.20;;;;;;5039902;28;20080;-64
2023/05/29 12:25:53;;;;;;;13.20;3.22;;;18.20;80.90;;;;;;5054432;28;20095;-62
2023/05/29 12:28:20;;;;;;;20.23;4.13;;;18.30;79.90;;;;;;5040153;28;20703;-63
2023/05/29 12:30:49;;;;;;;26.38;4.80;;;18.30;81.30;;;;;;5042851;28;20100;-63
2023/05/29 12:33:33;;;;;;;14.60;3.13;;;18.30;82.00;;;;;;5052827;28;20044;-62
2023/05/29 12:36:06;;;;;;;15.63;3.65;;;18.40;79.00;;;;;;5018271;28;20036;-64
2023/05/29 12:38:33;;;;;;;15.98;3.38;;;18.40;79.30;;;;;;5038982;28;20051;-62
2023/05/29 12:40:59;;;;;;;19.05;3.92;;;18.50;79.30;;;;;;5028858;28;20041;-62
2023/05/29 12:43:25;;;;;;;15.10;3.60;;;18.70;79.50;;;;;;5044734;28;20037;-62